Time;durP1;ratioP1;P1;durP2;ratioP2;P2;SDS_P1;SDS_P2;PMS_P1;PMS_P2;Temp;Humidity;BMP_temperature;BMP_pressure;BME280_temperature;BME280_humidity;BME280_pressure;Samples;Min_cycle;Max_cycle;Signal;HPM_P1;HPM_P2
2020/12/28 00:00:26;;;;;;;1.50;1.40;;;4.60;97.20;;;;;;5043667;28;20176;-73
2020/12/28 00:02:51;;;;;;;1.60;1.50;;;4.50;97.80;;;;;;5044405;28;20198;-73
2020/12/28 00:05:17;;;;;;;1.80;1.70;;;4.50;98.20;;;;;;5027891;28;20280;-73
2020/12/28 00:07:43;;;;;;;1.97;1.67;;;4.50;97.70;;;;;;5047761;28;20185;-73
2020/12/28 00:10:11;;;;;;;2.00;1.50;;;4.40;97.80;;;;;;5040546;28;20258;-73
2020/12/28 00:12:47;;;;;;;1.50;1.40;;;4.40;98.40;;;;;;5027018;28;20212;-73
2020/12/28 00:15:22;;;;;;;1.80;1.70;;;4.30;98.00;;;;;;5041138;28;20207;-74
2020/12/28 00:17:50;;;;;;;1.43;1.33;;;4.20;98.50;;;;;;5041554;28;20655;-74
2020/12/28 00:20:18;;;;;;;1.60;1.50;;;4.10;98.90;;;;;;5051852;28;20184;-73
2020/12/28 00:22:43;;;;;;;1.63;1.53;;;4.10;98.70;;;;;;5022624;28;20182;-74
2020/12/28 00:25:09;;;;;;;1.63;1.53;;;4.10;98.70;;;;;;5044048;28;20188;-73
2020/12/28 00:27:35;;;;;;;1.50;1.40;;;4.10;99.30;;;;;;5043027;28;20191;-73
2020/12/28 00:30:01;;;;;;;2.10;1.67;;;4.20;99.30;;;;;;5042047;28;20674;-73
2020/12/28 00:32:26;;;;;;;1.53;1.43;;;4.20;98.70;;;;;;5048413;28;20182;-74
2020/12/28 00:34:52;;;;;;;1.40;1.30;;;4.20;99.00;;;;;;5045423;28;20424;-74
2020/12/28 00:37:17;;;;;;;2.20;1.50;;;4.30;98.50;;;;;;5046457;28;20190;-74
2020/12/28 00:39:43;;;;;;;2.27;2.10;;;4.30;98.60;;;;;;5044132;28;20190;-74
2020/12/28 00:42:09;;;;;;;1.60;1.50;;;4.30;98.80;;;;;;5040409;28;20264;-73
2020/12/28 00:44:34;;;;;;;3.00;1.60;;;4.40;98.80;;;;;;5045342;28;20229;-74
2020/12/28 00:47:00;;;;;;;2.20;1.23;;;4.60;97.80;;;;;;5025406;28;20220;-74
2020/12/28 00:49:25;;;;;;;1.63;1.40;;;4.80;97.30;;;;;;5041304;28;20182;-73
2020/12/28 00:51:51;;;;;;;1.60;1.50;;;4.80;97.40;;;;;;5042004;28;20252;-74
2020/12/28 00:54:16;;;;;;;4.10;1.87;;;4.80;97.30;;;;;;5048958;28;20206;-73
2020/12/28 00:56:42;;;;;;;1.13;1.13;;;4.80;97.60;;;;;;5046128;28;20183;-74
2020/12/28 00:59:07;;;;;;;1.60;1.50;;;4.90;97.60;;;;;;5032489;28;20187;-73
2020/12/28 01:01:33;;;;;;;2.60;1.40;;;4.90;97.80;;;;;;5044709;28;20203;-74
2020/12/28 01:03:59;;;;;;;1.40;1.30;;;4.80;98.20;;;;;;5043006;28;20671;-73
2020/12/28 01:06:24;;;;;;;1.37;1.27;;;4.80;98.40;;;;;;5045563;28;20681;-74
2020/12/28 01:08:50;;;;;;;1.33;1.30;;;4.80;98.30;;;;;;5040618;28;20203;-74
2020/12/28 01:11:22;;;;;;;1.50;1.40;;;4.70;98.40;;;;;;5032929;28;20189;-74
2020/12/28 01:13:47;;;;;;;1.73;1.50;;;4.70;98.20;;;;;;5023728;28;20217;-74
2020/12/28 01:16:13;;;;;;;1.77;1.50;;;4.70;98.40;;;;;;5027827;28;20197;-74
2020/12/28 01:18:41;;;;;;;1.40;1.30;;;4.60;98.50;;;;;;5043991;28;20235;-73
2020/12/28 01:21:07;;;;;;;1.27;1.27;;;4.60;98.60;;;;;;5045681;28;20712;-75
2020/12/28 01:23:32;;;;;;;2.07;1.30;;;4.60;98.50;;;;;;5038787;28;20198;-73
2020/12/28 01:25:58;;;;;;;1.60;1.50;;;4.60;98.40;;;;;;5042652;28;20200;-72
2020/12/28 01:28:23;;;;;;;1.50;1.40;;;4.70;98.00;;;;;;5049492;28;20174;-73
2020/12/28 01:30:49;;;;;;;1.20;1.13;;;4.80;97.70;;;;;;5043794;28;20194;-75
2020/12/28 01:33:14;;;;;;;1.37;1.27;;;4.90;97.60;;;;;;5032331;28;20578;-75
2020/12/28 01:35:40;;;;;;;1.13;1.13;;;4.90;97.30;;;;;;5047582;28;20219;-75
2020/12/28 01:38:06;;;;;;;1.33;1.23;;;4.90;97.30;;;;;;5047902;28;20182;-75
2020/12/28 01:40:32;;;;;;;1.20;1.20;;;4.90;97.40;;;;;;5047079;28;20257;-73
2020/12/28 01:42:58;;;;;;;2.30;1.27;;;4.90;97.40;;;;;;5032264;28;20204;-73
2020/12/28 01:45:25;;;;;;;1.47;1.37;;;4.90;98.00;;;;;;5044850;28;20193;-73
2020/12/28 01:47:51;;;;;;;1.53;1.43;;;4.90;98.20;;;;;;5045264;28;20200;-73
2020/12/28 01:50:17;;;;;;;2.20;1.20;;;4.80;98.80;;;;;;5044339;28;20270;-73
2020/12/28 01:52:43;;;;;;;1.50;1.40;;;4.80;99.10;;;;;;5047893;28;20244;-75
2020/12/28 01:55:09;;;;;;;3.13;1.43;;;4.70;99.50;;;;;;5046736;28;20296;-75
2020/12/28 01:57:35;;;;;;;1.23;1.20;;;4.70;99.90;;;;;;5050714;28;20217;-73
2020/12/28 02:00:01;;;;;;;1.70;1.60;;;4.60;99.90;;;;;;5046533;28;20227;-75
2020/12/28 02:02:28;;;;;;;1.40;1.30;;;4.60;99.90;;;;;;5047934;28;20214;-75
2020/12/28 02:04:54;;;;;;;1.23;1.20;;;4.60;99.90;;;;;;5046750;28;20189;-75
2020/12/28 02:07:22;;;;;;;1.23;1.17;;;4.60;99.90;;;;;;5044190;28;20196;-74
2020/12/28 02:09:48;;;;;;;1.73;1.17;;;4.60;99.90;;;;;;5049447;28;20194;-73
2020/12/28 02:12:14;;;;;;;1.50;1.30;;;4.70;99.90;;;;;;5042985;28;20186;-74
2020/12/28 02:14:39;;;;;;;1.43;1.33;;;4.60;99.90;;;;;;5040387;28;20212;-75
2020/12/28 02:17:05;;;;;;;1.00;1.00;;;4.60;99.90;;;;;;5042487;28;20181;-76
2020/12/28 02:19:31;;;;;;;1.53;1.30;;;4.60;99.90;;;;;;5049203;28;20189;-74
2020/12/28 02:21:57;;;;;;;1.10;1.10;;;4.60;99.90;;;;;;5044955;28;20611;-74
2020/12/28 02:24:23;;;;;;;1.40;1.30;;;4.50;99.90;;;;;;5048898;28;20637;-74
2020/12/28 02:26:49;;;;;;;2.67;1.33;;;4.40;99.90;;;;;;5047585;28;20622;-74
2020/12/28 02:29:14;;;;;;;1.10;1.10;;;4.30;99.90;;;;;;5041657;28;20196;-74
2020/12/28 02:31:40;;;;;;;1.40;1.30;;;4.30;99.90;;;;;;5042991;28;20643;-73
2020/12/28 02:34:06;;;;;;;1.43;1.30;;;4.30;99.90;;;;;;5026937;28;20226;-74
2020/12/28 02:36:32;;;;;;;1.47;1.37;;;4.20;99.90;;;;;;5047169;28;20193;-74
2020/12/28 02:38:57;;;;;;;1.23;1.17;;;4.20;99.90;;;;;;5030340;28;20188;-75
2020/12/28 02:41:24;;;;;;;1.50;1.40;;;4.20;99.90;;;;;;5041001;28;20294;-74
2020/12/28 02:43:50;;;;;;;1.47;1.37;;;4.10;99.90;;;;;;5023295;28;20568;-74
2020/12/28 02:46:16;;;;;;;1.17;1.17;;;4.10;99.90;;;;;;5045621;28;20247;-75
2020/12/28 02:48:42;;;;;;;1.00;1.00;;;4.10;99.90;;;;;;5042245;28;20606;-74
2020/12/28 02:51:07;;;;;;;1.20;1.10;;;4.10;99.90;;;;;;5044979;28;20193;-74
2020/12/28 02:53:33;;;;;;;2.10;1.27;;;4.00;99.90;;;;;;5036910;28;20264;-75
2020/12/28 02:55:58;;;;;;;1.63;1.10;;;4.00;99.90;;;;;;5048042;28;20213;-74
2020/12/28 02:58:24;;;;;;;1.20;1.20;;;4.00;99.90;;;;;;5040777;28;20195;-74
2020/12/28 03:00:50;;;;;;;1.43;1.30;;;4.00;99.90;;;;;;5046255;28;20186;-74
2020/12/28 03:03:15;;;;;;;2.93;1.40;;;4.00;99.90;;;;;;5041016;28;20240;-74
2020/12/28 03:05:41;;;;;;;1.43;1.33;;;4.00;99.90;;;;;;5040019;28;20192;-74
2020/12/28 03:08:06;;;;;;;1.67;1.30;;;4.00;99.90;;;;;;5041321;28;20197;-74
2020/12/28 03:10:32;;;;;;;1.43;1.33;;;3.90;99.90;;;;;;5044237;28;20469;-74
2020/12/28 03:12:57;;;;;;;1.50;1.40;;;3.90;99.90;;;;;;5042425;28;20213;-74
2020/12/28 03:15:23;;;;;;;1.17;1.17;;;3.80;99.90;;;;;;5040565;28;20858;-75
2020/12/28 03:17:49;;;;;;;1.30;1.20;;;3.80;99.90;;;;;;5035941;28;20204;-75
2020/12/28 03:20:14;;;;;;;1.30;1.20;;;3.80;99.90;;;;;;5043131;28;20183;-74
2020/12/28 03:22:40;;;;;;;1.60;1.37;;;3.80;99.90;;;;;;5039667;28;20183;-74
2020/12/28 03:25:05;;;;;;;1.30;1.20;;;3.80;99.90;;;;;;5045306;28;20188;-75
2020/12/28 03:27:31;;;;;;;1.20;1.20;;;3.80;99.90;;;;;;5063695;28;20199;-74
2020/12/28 03:29:56;;;;;;;1.20;1.10;;;3.80;99.90;;;;;;5052427;28;20687;-75
2020/12/28 03:32:22;;;;;;;1.50;1.40;;;3.80;99.90;;;;;;5023947;28;20227;-74
2020/12/28 03:34:48;;;;;;;1.37;1.27;;;3.80;99.90;;;;;;5042639;28;20229;-74
2020/12/28 03:37:14;;;;;;;1.40;1.30;;;3.80;99.90;;;;;;5044298;28;20237;-74
2020/12/28 03:39:39;;;;;;;3.33;1.67;;;3.80;99.90;;;;;;5042593;28;20676;-74
2020/12/28 03:42:05;;;;;;;1.30;1.17;;;3.80;99.90;;;;;;5045719;28;20203;-74
2020/12/28 03:44:30;;;;;;;2.40;2.07;;;3.80;99.90;;;;;;5033367;28;20211;-74
2020/12/28 03:46:56;;;;;;;1.27;1.17;;;3.80;99.90;;;;;;5041281;28;20188;-74
2020/12/28 03:49:21;;;;;;;1.20;1.20;;;3.80;99.90;;;;;;5040118;28;20220;-74
2020/12/28 03:51:47;;;;;;;1.50;1.40;;;3.80;99.90;;;;;;5038608;28;20197;-74
2020/12/28 03:54:13;;;;;;;1.53;1.27;;;3.80;99.90;;;;;;5037222;28;20268;-74
2020/12/28 03:56:38;;;;;;;1.17;1.10;;;3.80;99.90;;;;;;5042386;28;20187;-74
2020/12/28 03:59:04;;;;;;;1.80;1.30;;;3.80;99.90;;;;;;5023734;28;20180;-74
2020/12/28 04:01:30;;;;;;;1.23;1.13;;;3.70;99.90;;;;;;5042652;28;20184;-74
2020/12/28 04:03:55;;;;;;;1.90;1.30;;;3.80;99.90;;;;;;5048683;28;20203;-74
2020/12/28 04:06:21;;;;;;;3.60;1.40;;;3.70;99.90;;;;;;5042106;28;20190;-75
2020/12/28 04:08:46;;;;;;;1.60;1.20;;;3.70;99.90;;;;;;5044228;28;20284;-74
2020/12/28 04:11:12;;;;;;;1.40;1.30;;;3.70;99.90;;;;;;5034205;28;20196;-73
2020/12/28 04:13:38;;;;;;;1.57;1.47;;;3.70;99.90;;;;;;5041935;28;20284;-75
2020/12/28 04:16:03;;;;;;;1.40;1.30;;;3.60;99.90;;;;;;5045264;28;20212;-73
2020/12/28 04:18:29;;;;;;;1.70;1.60;;;3.60;99.90;;;;;;5040498;28;20948;-74
2020/12/28 04:20:54;;;;;;;1.53;1.43;;;3.60;99.90;;;;;;5044037;28;20208;-74
2020/12/28 04:23:20;;;;;;;1.20;1.20;;;3.60;99.90;;;;;;5043399;28;20264;-74
2020/12/28 04:25:46;;;;;;;1.57;1.43;;;3.70;99.90;;;;;;5042852;28;20193;-75
2020/12/28 04:28:11;;;;;;;1.30;1.30;;;3.70;99.90;;;;;;5038623;28;20188;-74
2020/12/28 04:30:37;;;;;;;1.37;1.27;;;3.70;99.90;;;;;;5040992;28;20197;-74
2020/12/28 04:33:02;;;;;;;1.50;1.40;;;3.70;99.90;;;;;;5035315;28;20201;-73
2020/12/28 04:35:28;;;;;;;1.40;1.30;;;3.70;99.90;;;;;;5042104;28;20205;-74
2020/12/28 04:37:54;;;;;;;1.40;1.30;;;3.70;99.90;;;;;;5040269;28;20209;-75
2020/12/28 04:40:19;;;;;;;1.70;1.30;;;3.70;99.90;;;;;;5029885;28;20278;-76
2020/12/28 04:42:45;;;;;;;1.57;1.47;;;3.70;99.90;;;;;;5030365;28;20182;-76
2020/12/28 04:45:11;;;;;;;1.50;1.40;;;3.70;99.90;;;;;;5044292;28;20559;-76
2020/12/28 04:47:37;;;;;;;1.53;1.43;;;3.70;99.90;;;;;;5040608;28;20237;-75
2020/12/28 04:50:07;;;;;;;1.20;1.20;;;3.70;99.90;;;;;;5043596;28;20189;-75
2020/12/28 04:52:34;;;;;;;1.53;1.20;;;3.80;99.90;;;;;;5043824;28;20216;-74
2020/12/28 04:55:00;;;;;;;2.90;1.30;;;3.90;99.90;;;;;;5039698;28;20228;-74
2020/12/28 04:57:26;;;;;;;1.30;1.20;;;3.80;99.90;;;;;;5041937;28;20180;-74
2020/12/28 04:59:56;;;;;;;4.73;1.60;;;3.90;99.90;;;;;;5046264;28;20184;-76
2020/12/28 05:02:23;;;;;;;3.70;1.63;;;3.90;99.90;;;;;;5046669;28;20179;-76
2020/12/28 05:04:49;;;;;;;1.10;1.10;;;3.90;99.90;;;;;;5046677;28;20204;-76
2020/12/28 05:07:15;;;;;;;1.70;1.40;;;3.90;99.90;;;;;;5044335;28;20185;-76
2020/12/28 05:09:40;;;;;;;1.60;1.50;;;3.90;99.90;;;;;;5046341;28;20216;-77
2020/12/28 05:12:06;;;;;;;1.63;1.37;;;3.90;99.90;;;;;;5049279;28;20229;-75
2020/12/28 05:14:32;;;;;;;2.87;1.40;;;3.80;99.90;;;;;;5041030;28;20205;-76
2020/12/28 05:17:00;;;;;;;1.50;1.40;;;3.90;99.90;;;;;;5046893;28;20207;-74
2020/12/28 05:19:26;;;;;;;3.83;1.20;;;3.90;99.90;;;;;;5043278;28;20203;-75
2020/12/28 05:21:53;;;;;;;1.73;1.40;;;3.90;99.90;;;;;;5046819;28;20675;-76
2020/12/28 05:24:19;;;;;;;1.50;1.40;;;3.90;99.90;;;;;;5038013;28;20213;-75
2020/12/28 05:26:46;;;;;;;1.37;1.30;;;3.90;99.90;;;;;;5025681;28;20189;-75
2020/12/28 05:29:27;;;;;;;3.10;1.70;;;3.90;99.90;;;;;;5049047;28;20213;-74
2020/12/28 05:31:55;;;;;;;1.57;1.47;;;3.90;99.90;;;;;;5040656;28;20675;-74
2020/12/28 05:34:26;;;;;;;2.30;1.50;;;3.80;99.90;;;;;;5043533;28;20745;-75
2020/12/28 05:36:57;;;;;;;1.83;1.50;;;3.90;99.90;;;;;;5047953;28;20189;-76
2020/12/28 05:39:27;;;;;;;1.50;1.40;;;3.80;99.90;;;;;;5044504;28;20184;-74
2020/12/28 05:41:56;;;;;;;2.30;1.40;;;3.80;99.90;;;;;;5036382;28;20204;-76
2020/12/28 05:44:26;;;;;;;1.40;1.30;;;3.80;99.90;;;;;;5037701;28;20205;-75
2020/12/28 05:47:13;;;;;;;1.60;1.50;;;3.80;99.90;;;;;;5046114;28;20186;-75
2020/12/28 05:49:43;;;;;;;1.70;1.17;;;3.80;99.90;;;;;;5023530;28;20572;-76
2020/12/28 05:52:11;;;;;;;1.67;1.57;;;3.70;99.90;;;;;;5041238;28;20188;-76
2020/12/28 05:54:37;;;;;;;1.73;1.63;;;3.70;99.90;;;;;;5043578;28;20206;-75
2020/12/28 05:57:04;;;;;;;2.23;1.40;;;3.60;99.90;;;;;;5031659;28;20179;-75
2020/12/28 05:59:31;;;;;;;1.60;1.50;;;3.70;99.90;;;;;;5041123;28;20722;-76
2020/12/28 06:01:58;;;;;;;1.87;1.40;;;3.60;99.90;;;;;;5048400;28;20204;-75
2020/12/28 06:04:24;;;;;;;3.27;1.67;;;3.60;99.90;;;;;;5045572;28;20214;-74
2020/12/28 06:06:56;;;;;;;2.37;1.60;;;3.70;99.90;;;;;;5044206;28;20617;-75
2020/12/28 06:09:23;;;;;;;3.00;1.60;;;3.70;99.90;;;;;;5044672;28;20186;-76
2020/12/28 06:11:48;;;;;;;2.57;1.30;;;3.80;99.90;;;;;;5036872;28;20197;-76
2020/12/28 06:14:19;;;;;;;2.03;1.50;;;3.80;99.90;;;;;;5043393;28;20605;-78
2020/12/28 06:16:46;;;;;;;3.67;1.50;;;3.80;99.90;;;;;;5050242;28;20184;-77
2020/12/28 06:19:25;;;;;;;1.57;1.47;;;3.80;99.90;;;;;;5046461;28;20543;-75
2020/12/28 06:21:51;;;;;;;2.73;1.67;;;3.80;99.90;;;;;;5042167;28;20225;-76
2020/12/28 06:24:31;;;;;;;1.70;1.60;;;3.80;99.90;;;;;;5047260;28;20640;-76
2020/12/28 06:27:09;;;;;;;1.77;1.67;;;3.70;99.90;;;;;;5042435;28;20565;-75
2020/12/28 06:29:36;;;;;;;1.60;1.50;;;3.70;99.90;;;;;;5041307;28;20390;-73
2020/12/28 06:32:14;;;;;;;1.20;1.20;;;3.80;99.90;;;;;;5045460;28;20664;-75
2020/12/28 06:34:41;;;;;;;1.83;1.73;;;3.80;99.90;;;;;;5024522;28;20294;-77
2020/12/28 06:37:06;;;;;;;1.60;1.50;;;3.80;99.90;;;;;;5027865;28;20205;-74
2020/12/28 06:39:32;;;;;;;1.60;1.50;;;3.80;99.90;;;;;;5043788;28;20285;-75
2020/12/28 06:42:24;;;;;;;2.20;1.40;;;3.80;99.90;;;;;;5041281;28;20274;-76
2020/12/28 06:44:50;;;;;;;2.30;1.70;;;3.80;99.90;;;;;;5036950;28;20222;-74
2020/12/28 06:47:16;;;;;;;2.00;1.70;;;3.80;99.90;;;;;;5037870;28;20188;-74
2020/12/28 06:49:42;;;;;;;1.40;1.40;;;3.70;99.90;;;;;;5037045;28;20235;-75
2020/12/28 06:52:08;;;;;;;1.80;1.70;;;3.70;99.90;;;;;;5042197;28;20195;-73
2020/12/28 06:54:34;;;;;;;3.07;1.60;;;3.70;99.90;;;;;;5022367;28;20216;-73
2020/12/28 06:57:04;;;;;;;5.03;3.13;;;3.60;99.90;;;;;;5049293;28;20199;-75
2020/12/28 06:59:30;;;;;;;10.57;8.17;;;3.60;99.90;;;;;;5040686;28;20576;-73
2020/12/28 07:01:57;;;;;;;2.27;2.07;;;3.60;99.90;;;;;;5043583;28;20213;-75
2020/12/28 07:04:24;;;;;;;3.57;2.03;;;3.60;99.90;;;;;;5032015;28;20204;-73
2020/12/28 07:06:56;;;;;;;2.40;2.30;;;3.50;99.90;;;;;;5038820;28;20227;-74
2020/12/28 07:09:22;;;;;;;2.80;2.60;;;3.50;99.90;;;;;;5037335;28;20658;-74
2020/12/28 07:11:47;;;;;;;2.20;2.10;;;3.50;99.90;;;;;;5036797;28;20221;-73
2020/12/28 07:14:13;;;;;;;2.10;1.90;;;3.50;99.90;;;;;;5039869;28;20355;-74
2020/12/28 07:16:38;;;;;;;2.70;2.00;;;3.50;99.90;;;;;;5044092;28;20235;-75
2020/12/28 07:19:04;;;;;;;2.20;2.00;;;3.50;99.90;;;;;;5035634;28;20792;-75
2020/12/28 07:21:33;;;;;;;2.33;2.20;;;3.50;99.90;;;;;;5039075;28;20184;-75
2020/12/28 07:23:59;;;;;;;2.53;1.90;;;3.50;99.90;;;;;;5036413;28;20237;-73
2020/12/28 07:26:27;;;;;;;2.80;2.60;;;3.50;99.90;;;;;;5045251;28;20204;-73
2020/12/28 07:28:54;;;;;;;2.77;2.57;;;3.50;99.90;;;;;;5050664;28;20183;-74
2020/12/28 07:31:22;;;;;;;3.97;2.20;;;3.60;99.90;;;;;;5060535;28;20261;-73
2020/12/28 07:33:49;;;;;;;2.40;1.80;;;3.60;99.90;;;;;;5043600;28;20204;-74
2020/12/28 07:36:16;;;;;;;3.77;2.50;;;3.60;99.90;;;;;;5042487;28;20593;-73
2020/12/28 07:38:47;;;;;;;1.77;1.67;;;3.50;99.90;;;;;;5043577;28;20182;-74
2020/12/28 07:41:13;;;;;;;2.10;1.60;;;3.50;99.90;;;;;;5042096;28;20738;-73
2020/12/28 07:43:39;;;;;;;2.10;1.67;;;3.50;99.90;;;;;;5041670;28;20206;-72
2020/12/28 07:46:29;;;;;;;2.27;2.07;;;3.50;99.90;;;;;;5041375;28;20263;-73
2020/12/28 07:49:00;;;;;;;4.37;2.90;;;3.50;99.90;;;;;;5037387;28;20209;-73
2020/12/28 07:51:27;;;;;;;3.37;3.00;;;3.50;99.90;;;;;;5036355;28;20193;-75
2020/12/28 07:54:03;;;;;;;2.97;2.77;;;3.50;99.90;;;;;;5038717;28;20234;-73
2020/12/28 07:56:38;;;;;;;4.53;2.60;;;3.60;99.90;;;;;;5042186;28;20552;-73
2020/12/28 07:59:18;;;;;;;2.03;1.93;;;3.70;99.90;;;;;;5035896;28;20175;-73
2020/12/28 08:01:48;;;;;;;4.00;2.37;;;3.80;99.90;;;;;;5042188;28;20177;-74
2020/12/28 08:04:32;;;;;;;2.63;2.43;;;3.80;99.90;;;;;;5041674;28;20567;-74
2020/12/28 08:06:58;;;;;;;2.20;2.03;;;3.80;99.90;;;;;;5033394;28;20176;-73
2020/12/28 08:09:24;;;;;;;4.07;2.80;;;3.80;99.90;;;;;;5044610;28;20213;-73
2020/12/28 08:11:58;;;;;;;2.37;2.20;;;3.90;99.90;;;;;;5036166;28;20184;-74
2020/12/28 08:14:24;;;;;;;3.23;2.47;;;3.90;99.90;;;;;;5040084;28;20203;-74
2020/12/28 08:16:50;;;;;;;3.10;2.80;;;3.90;99.90;;;;;;5041271;28;20178;-74
2020/12/28 08:19:28;;;;;;;2.83;2.63;;;3.90;99.90;;;;;;5036148;28;20205;-73
2020/12/28 08:21:54;;;;;;;2.10;1.53;;;3.90;99.90;;;;;;5046543;28;20257;-74
2020/12/28 08:24:21;;;;;;;2.23;1.57;;;3.90;99.90;;;;;;5027784;28;20660;-74
2020/12/28 08:26:48;;;;;;;2.00;1.90;;;3.90;99.90;;;;;;5041554;28;20702;-74
2020/12/28 08:29:14;;;;;;;1.60;1.50;;;4.00;99.90;;;;;;5041095;28;20202;-74
2020/12/28 08:31:40;;;;;;;1.73;1.20;;;4.00;99.90;;;;;;5059040;28;20561;-75
2020/12/28 08:34:12;;;;;;;1.87;1.77;;;4.00;99.90;;;;;;5066495;28;20209;-74
2020/12/28 08:36:40;;;;;;;1.90;1.80;;;4.00;99.90;;;;;;5058993;28;20186;-74
2020/12/28 08:39:25;;;;;;;2.07;1.80;;;4.00;99.90;;;;;;5042155;28;20664;-74
2020/12/28 08:42:01;;;;;;;3.00;2.70;;;4.00;99.90;;;;;;5033640;28;20191;-76
2020/12/28 08:44:31;;;;;;;3.93;2.90;;;4.10;99.90;;;;;;5025354;28;20202;-74
2020/12/28 08:46:57;;;;;;;3.80;3.50;;;4.10;99.90;;;;;;5049121;28;20467;-74
2020/12/28 08:49:25;;;;;;;3.00;2.80;;;4.10;99.90;;;;;;5033806;28;20609;-74
2020/12/28 08:51:51;;;;;;;5.00;2.83;;;4.10;99.90;;;;;;5044963;28;20178;-74
2020/12/28 08:54:27;;;;;;;5.53;5.03;;;4.00;99.90;;;;;;5045232;28;20751;-74
2020/12/28 08:56:53;;;;;;;3.13;2.93;;;4.00;99.90;;;;;;5041740;28;20172;-75
2020/12/28 08:59:19;;;;;;;3.23;2.93;;;4.00;99.90;;;;;;5046077;28;20336;-74
2020/12/28 09:01:52;;;;;;;2.87;2.67;;;4.00;99.90;;;;;;5044035;28;20266;-73
2020/12/28 09:04:18;;;;;;;3.07;2.87;;;4.00;99.90;;;;;;5041866;28;20197;-74
2020/12/28 09:06:44;;;;;;;4.10;3.40;;;4.00;99.90;;;;;;5039750;28;20749;-73
2020/12/28 09:09:10;;;;;;;2.00;1.90;;;4.10;99.90;;;;;;5041021;28;20205;-74
2020/12/28 09:11:35;;;;;;;2.63;2.43;;;4.10;99.90;;;;;;5041377;28;20186;-74
2020/12/28 09:14:01;;;;;;;4.87;2.30;;;4.10;99.90;;;;;;5038594;28;20200;-73
2020/12/28 09:16:27;;;;;;;3.63;2.60;;;4.10;99.90;;;;;;5045503;28;20688;-73
2020/12/28 09:18:52;;;;;;;5.23;2.17;;;4.10;99.90;;;;;;5044594;28;20566;-72
2020/12/28 09:21:18;;;;;;;3.83;2.53;;;4.10;99.90;;;;;;5050204;28;20693;-73
2020/12/28 09:23:43;;;;;;;3.23;2.17;;;4.10;99.90;;;;;;5029957;28;20763;-74
2020/12/28 09:26:09;;;;;;;3.03;2.40;;;4.10;99.90;;;;;;5042717;28;20185;-74
2020/12/28 09:28:35;;;;;;;4.70;3.77;;;4.20;99.90;;;;;;5041727;28;20208;-74
2020/12/28 09:31:00;;;;;;;4.70;4.13;;;4.20;99.90;;;;;;5045823;28;20216;-73
2020/12/28 09:33:26;;;;;;;5.00;4.37;;;4.30;99.90;;;;;;5042807;28;20333;-73
2020/12/28 09:35:52;;;;;;;4.70;2.83;;;4.30;99.90;;;;;;5046236;28;20594;-73
2020/12/28 09:38:17;;;;;;;3.53;3.23;;;4.30;99.90;;;;;;5050398;28;20184;-76
2020/12/28 09:40:43;;;;;;;3.00;2.80;;;4.30;99.90;;;;;;5043786;28;20665;-73
2020/12/28 09:43:08;;;;;;;3.00;2.80;;;4.30;99.90;;;;;;5026594;28;20701;-71
2020/12/28 09:45:37;;;;;;;3.20;2.90;;;4.40;99.90;;;;;;5044135;28;20186;-73
2020/12/28 09:48:06;;;;;;;3.40;3.10;;;4.40;99.90;;;;;;5047575;28;20180;-72
2020/12/28 09:50:31;;;;;;;3.97;3.57;;;4.40;99.90;;;;;;5041944;28;20194;-72
2020/12/28 09:52:57;;;;;;;4.67;4.27;;;4.50;99.90;;;;;;5021329;28;20576;-72
2020/12/28 09:55:22;;;;;;;3.60;3.30;;;4.50;99.90;;;;;;5041677;28;20296;-72
2020/12/28 09:57:48;;;;;;;3.20;2.90;;;4.50;99.90;;;;;;5040457;28;20177;-72
2020/12/28 10:00:14;;;;;;;3.47;3.17;;;4.50;99.90;;;;;;5033804;28;20175;-72
2020/12/28 10:02:42;;;;;;;2.70;2.50;;;4.50;99.90;;;;;;5039250;28;20181;-72
2020/12/28 10:05:09;;;;;;;2.50;2.30;;;4.50;99.90;;;;;;5040214;28;20243;-72
2020/12/28 10:07:35;;;;;;;3.37;3.10;;;4.40;99.90;;;;;;5045373;28;20191;-71
2020/12/28 10:10:02;;;;;;;3.50;3.20;;;4.40;99.90;;;;;;5049797;28;20197;-73
2020/12/28 10:12:28;;;;;;;3.67;3.30;;;4.40;99.90;;;;;;5042964;28;20196;-71
2020/12/28 10:14:54;;;;;;;4.50;4.10;;;4.40;99.90;;;;;;5041814;28;20204;-71
2020/12/28 10:17:20;;;;;;;5.43;4.20;;;4.40;99.90;;;;;;5041717;28;20651;-72
2020/12/28 10:19:45;;;;;;;5.43;4.90;;;4.30;99.90;;;;;;5040276;28;20189;-72
2020/12/28 10:22:12;;;;;;;5.63;5.13;;;4.30;99.90;;;;;;5046468;28;20281;-72
2020/12/28 10:24:37;;;;;;;5.70;5.20;;;4.30;99.90;;;;;;5026701;28;20216;-72
2020/12/28 10:27:03;;;;;;;5.93;5.43;;;4.30;99.90;;;;;;5045263;28;20179;-72
2020/12/28 10:29:29;;;;;;;5.77;5.27;;;4.30;99.90;;;;;;5045442;28;20200;-72
2020/12/28 10:31:58;;;;;;;6.17;5.67;;;4.40;99.90;;;;;;5044026;28;20787;-75
2020/12/28 10:34:25;;;;;;;5.57;5.17;;;4.30;99.90;;;;;;5045893;28;20214;-74
2020/12/28 10:36:50;;;;;;;6.33;5.80;;;4.40;99.90;;;;;;5044092;28;20178;-74
2020/12/28 10:39:16;;;;;;;6.20;5.60;;;4.40;99.90;;;;;;5045277;28;20392;-75
2020/12/28 10:41:42;;;;;;;6.00;5.50;;;4.40;99.90;;;;;;5044729;28;20187;-75
2020/12/28 10:44:08;;;;;;;6.50;5.90;;;4.50;99.90;;;;;;5045168;28;20216;-73
2020/12/28 10:46:36;;;;;;;7.43;6.73;;;4.40;99.90;;;;;;5044844;28;20205;-73
2020/12/28 10:49:02;;;;;;;6.50;5.90;;;4.40;99.90;;;;;;5038340;28;20201;-73
2020/12/28 10:51:28;;;;;;;7.10;6.40;;;4.40;99.90;;;;;;5041367;28;20190;-73
2020/12/28 10:53:53;;;;;;;6.23;5.63;;;4.50;99.90;;;;;;5040425;28;20211;-73
2020/12/28 10:56:27;;;;;;;6.67;6.07;;;4.40;99.90;;;;;;5037268;28;20178;-74
2020/12/28 10:58:53;;;;;;;6.77;6.17;;;4.40;99.90;;;;;;5035442;28;20560;-74
2020/12/28 11:01:23;;;;;;;6.93;6.33;;;4.30;99.90;;;;;;5045754;28;20183;-74
2020/12/28 11:03:51;;;;;;;6.90;6.30;;;4.40;99.90;;;;;;5046425;28;20816;-75
2020/12/28 11:06:20;;;;;;;7.27;6.57;;;4.30;99.90;;;;;;5022224;28;20184;-74
2020/12/28 11:08:46;;;;;;;6.43;5.37;;;4.30;99.90;;;;;;5044172;28;20177;-75
2020/12/28 11:11:12;;;;;;;6.00;5.50;;;4.40;99.90;;;;;;5048211;28;20225;-73
2020/12/28 11:13:38;;;;;;;5.87;5.23;;;4.50;99.90;;;;;;5042122;28;20849;-73
2020/12/28 11:16:03;;;;;;;6.37;5.70;;;4.50;99.90;;;;;;5044618;28;20199;-74
2020/12/28 11:18:29;;;;;;;5.67;5.17;;;4.50;99.90;;;;;;5036821;28;20185;-72
2020/12/28 11:21:01;;;;;;;6.37;5.63;;;4.50;99.90;;;;;;5102828;27;21115;-73
2020/12/28 11:23:57;;;;;;;7.43;6.73;;;4.50;99.90;;;;;;5102878;28;20213;-75
2020/12/28 11:26:19;;;;;;;7.00;5.63;;;4.50;99.90;;;;;;5093788;28;20185;-75
2020/12/28 11:28:45;;;;;;;6.70;5.77;;;4.60;99.90;;;;;;5091150;28;20186;-74
2020/12/28 11:31:18;;;;;;;8.90;5.87;;;4.60;99.90;;;;;;5092460;28;20194;-74
2020/12/28 11:33:44;;;;;;;10.13;5.97;;;4.60;99.90;;;;;;5101080;28;20648;-75
2020/12/28 11:36:10;;;;;;;15.30;7.90;;;4.60;99.90;;;;;;5092611;28;20183;-74
2020/12/28 11:38:37;;;;;;;17.70;12.77;;;4.60;99.90;;;;;;5103281;28;20197;-75
2020/12/28 11:41:03;;;;;;;22.30;16.23;;;4.60;99.90;;;;;;5107094;28;20752;-75
2020/12/28 11:43:29;;;;;;;9.27;6.20;;;4.60;99.90;;;;;;5104394;28;20200;-74
2020/12/28 11:45:54;;;;;;;7.23;6.53;;;4.60;99.90;;;;;;5098792;28;20196;-73
2020/12/28 11:48:20;;;;;;;6.30;5.70;;;4.60;99.90;;;;;;5098675;28;20210;-73
2020/12/28 11:50:47;;;;;;;8.37;6.53;;;4.60;99.90;;;;;;5105180;28;20182;-73
2020/12/28 11:53:13;;;;;;;6.97;6.27;;;4.70;99.90;;;;;;5102022;28;20237;-73
2020/12/28 11:58:24;;;;;;;10.97;8.80;;;4.60;99.90;;;;;;5097444;28;20198;-72
2020/12/28 12:00:49;;;;;;;13.53;10.07;;;4.70;99.90;;;;;;5106231;28;20204;-73
2020/12/28 12:03:15;;;;;;;6.37;5.70;;;4.70;99.90;;;;;;5101303;28;20196;-72
2020/12/28 12:05:40;;;;;;;4.97;4.57;;;4.80;99.90;;;;;;5101842;28;20184;-72
2020/12/28 12:08:06;;;;;;;5.50;5.10;;;4.80;99.90;;;;;;5100505;28;20562;-73
2020/12/28 12:10:32;;;;;;;6.00;5.40;;;4.80;99.90;;;;;;5100173;28;20212;-74
2020/12/28 12:12:57;;;;;;;5.43;4.93;;;4.80;99.90;;;;;;5101098;28;20821;-74
2020/12/28 12:15:23;;;;;;;8.57;7.47;;;4.90;99.90;;;;;;5099817;28;20546;-74
2020/12/28 12:17:48;;;;;;;17.93;10.60;;;4.90;99.90;;;;;;5095851;28;20192;-75
2020/12/28 12:20:14;;;;;;;11.23;8.27;;;5.00;99.90;;;;;;5103368;28;20595;-75
2020/12/28 12:22:39;;;;;;;9.40;8.20;;;5.00;99.90;;;;;;5092097;28;20196;-72
2020/12/28 12:25:05;;;;;;;5.87;5.17;;;5.00;99.90;;;;;;5093653;28;20180;-73
2020/12/28 12:27:38;;;;;;;4.73;4.33;;;5.10;99.90;;;;;;5092565;28;20185;-75
2020/12/28 12:30:04;;;;;;;4.23;3.93;;;5.10;99.90;;;;;;5101980;28;20184;-74
2020/12/28 12:32:30;;;;;;;4.10;3.70;;;5.10;99.90;;;;;;5099913;28;20183;-74
2020/12/28 12:34:56;;;;;;;4.30;3.90;;;5.10;99.90;;;;;;5094112;28;20222;-73
2020/12/28 12:37:21;;;;;;;4.13;3.73;;;5.00;99.90;;;;;;5084531;28;20235;-74
2020/12/28 12:39:47;;;;;;;4.20;3.83;;;5.00;99.90;;;;;;5087919;28;20324;-74
2020/12/28 12:42:13;;;;;;;3.77;3.47;;;5.00;99.90;;;;;;5082462;28;20848;-74
2020/12/28 12:44:42;;;;;;;2.37;2.17;;;4.90;99.90;;;;;;5085979;28;20250;-73
2020/12/28 12:47:08;;;;;;;4.43;2.03;;;4.80;99.90;;;;;;5085495;28;20707;-73
2020/12/28 12:49:34;;;;;;;2.60;2.40;;;4.80;99.90;;;;;;5087713;28;20285;-74
2020/12/28 12:52:18;;;;;;;2.10;1.90;;;4.70;99.90;;;;;;5085848;28;20193;-73
2020/12/28 12:54:44;;;;;;;2.00;1.80;;;4.70;99.90;;;;;;5081017;28;20214;-72
2020/12/28 12:57:09;;;;;;;4.37;2.23;;;4.60;99.90;;;;;;5079551;28;20184;-73
2020/12/28 13:00:04;;;;;;;2.80;2.20;;;4.60;99.90;;;;;;5083319;28;20198;-73